PWSweather.com
Personal Weather Stations
Station Observations
TERNAARD
Friesland, TernaardNL

FrieslandTernaardNL

Lat: 53.380557, Lon: 5.969774

Elevation: 3

Station Type: Davis Vantage Pro-2

Latest ConditionsUpdated 3:26:15 AM GMT+01:01 Tuesday, Oct 22, 2019
Currently Today's Max Today's Min Today's Average
Temperature 52.2°F11.2°C 52.7°F11.5°C 51.8°F11.0°C 52.2°F11.2°C
Dew Point 50.8°F10.4°C 50.8°F10.4°C 49.8°F9.9°C 50.3°F10.2°C
Winds 1.1 mph NW1.8 kmh NW 3.4 mph -5.5 kmh - - 1.2 mph 1.9 kmh
Wind Gusts 1.1 mph1.8 kmh 6.9 mph11.1 kmh - -
Humidity 95% 95% 93% 93%
Pressure 30.09 in1019.0 mb 30.09 in1019.0 mb 30.08 in1018.6 mb -
Hour Temp Dew Point Humidity Winds Wind Gusts Pressure Precip Precip Rate Daily Precip Total
03:26 AM 52.2°F11.2°C 50.8°F10.4°C 95% 1.1 mph NW1.8 kmh NW 1.1 mph1.8 kmh 30.09 in1019.0 mb - 0.00 in0.0 mm 0.00 in0.0 mm
03:20 AM 52.1°F11.2°C 50.7°F10.4°C 95% 2.3 mph WSW3.7 kmh WSW 3.4 mph5.5 kmh 30.09 in1019.0 mb - 0.00 in0.0 mm 0.00 in0.0 mm
03:15 AM 52.0°F11.1°C 50.3°F10.2°C 94% 1.1 mph SW1.8 kmh SW 3.4 mph5.5 kmh 30.09 in1019.0 mb - 0.00 in0.0 mm 0.00 in0.0 mm
03:09 AM 51.9°F11.1°C 50.2°F10.1°C 94% 1.1 mph WSW1.8 kmh WSW 1.1 mph1.8 kmh 30.08 in1018.6 mb - 0.00 in0.0 mm 0.00 in0.0 mm
03:03 AM 51.9°F11.1°C 50.2°F10.1°C 94% 1.1 mph WSW1.8 kmh WSW 2.3 mph3.7 kmh 30.09 in1019.0 mb - 0.00 in0.0 mm 0.00 in0.0 mm
02:58 AM 51.9°F11.1°C 50.2°F10.1°C 94% 1.1 mph WSW1.8 kmh WSW 2.3 mph3.7 kmh 30.09 in1019.0 mb - 0.00 in0.0 mm 0.00 in0.0 mm
02:52 AM 51.9°F11.1°C 50.2°F10.1°C 94% 1.1 mph SW1.8 kmh SW 3.4 mph5.5 kmh 30.09 in1019.0 mb - 0.00 in0.0 mm 0.00 in0.0 mm
02:46 AM 51.9°F11.1°C 50.3°F10.2°C 94% 1.1 mph WSW1.8 kmh WSW 3.4 mph5.5 kmh 30.09 in1019.0 mb - 0.00 in0.0 mm 0.00 in0.0 mm
02:41 AM 51.9°F11.1°C 50.2°F10.1°C 94% 1.1 mph SW1.8 kmh SW 2.3 mph3.7 kmh 30.09 in1019.0 mb - 0.00 in0.0 mm 0.00 in0.0 mm
02:35 AM 51.9°F11.1°C 50.3°F10.2°C 94% 2.3 mph WSW3.7 kmh WSW 3.4 mph5.5 kmh 30.09 in1019.0 mb - 0.00 in0.0 mm 0.00 in0.0 mm
02:30 AM 51.9°F11.1°C 50.2°F10.1°C 94% 1.1 mph WSW1.8 kmh WSW 4.6 mph7.4 kmh 30.09 in1019.0 mb - 0.00 in0.0 mm 0.00 in0.0 mm
02:24 AM 51.9°F11.1°C 50.2°F10.1°C 94% Calm Calm 2.3 mph3.7 kmh 30.09 in1019.0 mb - 0.00 in0.0 mm 0.00 in0.0 mm
02:18 AM 51.8°F11.0°C 50.1°F10.1°C 94% Calm Calm -- 30.09 in1019.0 mb - 0.00 in0.0 mm 0.00 in0.0 mm
02:13 AM 51.8°F11.0°C 50.1°F10.1°C 94% 1.1 mph W1.8 kmh W 2.3 mph3.7 kmh 30.09 in1019.0 mb - 0.00 in0.0 mm 0.00 in0.0 mm
02:07 AM 51.8°F11.0°C 49.8°F9.9°C 93% Calm Calm 1.1 mph1.8 kmh 30.09 in1019.0 mb - 0.00 in0.0 mm 0.00 in0.0 mm
02:01 AM 51.9°F11.1°C 49.9°F9.9°C 93% 1.1 mph W1.8 kmh W 3.4 mph5.5 kmh 30.09 in1019.0 mb - 0.00 in0.0 mm 0.00 in0.0 mm
01:56 AM 52.0°F11.1°C 50.0°F10.0°C 93% 1.1 mph WSW1.8 kmh WSW 2.3 mph3.7 kmh 30.09 in1019.0 mb - 0.00 in0.0 mm 0.00 in0.0 mm
01:50 AM 52.0°F11.1°C 50.0°F10.0°C 93% 1.1 mph W1.8 kmh W 3.4 mph5.5 kmh 30.09 in1019.0 mb - 0.00 in0.0 mm 0.00 in0.0 mm
01:45 AM 52.0°F11.1°C 50.0°F10.0°C 93% 1.1 mph WSW1.8 kmh WSW 2.3 mph3.7 kmh 30.09 in1019.0 mb - 0.00 in0.0 mm 0.00 in0.0 mm
01:39 AM 52.0°F11.1°C 50.0°F10.0°C 93% 2.3 mph WSW3.7 kmh WSW 3.4 mph5.5 kmh 30.09 in1019.0 mb - 0.00 in0.0 mm 0.00 in0.0 mm
01:33 AM 52.0°F11.1°C 50.0°F10.0°C 93% 2.3 mph WSW3.7 kmh WSW 3.4 mph5.5 kmh 30.09 in1019.0 mb - 0.00 in0.0 mm 0.00 in0.0 mm
01:28 AM 52.0°F11.1°C 50.1°F10.1°C 93% 2.3 mph WSW3.7 kmh WSW 4.6 mph7.4 kmh 30.09 in1019.0 mb - 0.00 in0.0 mm 0.00 in0.0 mm
01:22 AM 52.1°F11.2°C 50.1°F10.1°C 93% Calm Calm -- 30.09 in1019.0 mb - 0.00 in0.0 mm 0.00 in0.0 mm
01:16 AM 52.2°F11.2°C 50.2°F10.1°C 93% Calm Calm 3.4 mph5.5 kmh 30.09 in1019.0 mb - 0.00 in0.0 mm 0.00 in0.0 mm
01:11 AM 52.2°F11.2°C 50.2°F10.1°C 93% 1.1 mph WSW1.8 kmh WSW 6.9 mph11.1 kmh 30.09 in1019.0 mb - 0.00 in0.0 mm 0.00 in0.0 mm
01:05 AM 52.4°F11.3°C 50.4°F10.2°C 93% 1.1 mph WSW1.8 kmh WSW 3.4 mph5.5 kmh 30.09 in1019.0 mb - 0.00 in0.0 mm 0.00 in0.0 mm
01:00 AM 52.5°F11.4°C 50.5°F10.3°C 93% 3.4 mph W5.5 kmh W 4.6 mph7.4 kmh 30.09 in1019.0 mb - 0.00 in0.0 mm 0.00 in0.0 mm
12:54 AM 52.5°F11.4°C 50.5°F10.3°C 93% 2.3 mph WSW3.7 kmh WSW 3.4 mph5.5 kmh 30.09 in1019.0 mb - 0.00 in0.0 mm 0.00 in0.0 mm
12:48 AM 52.5°F11.4°C 50.5°F10.3°C 93% 2.3 mph SW3.7 kmh SW 3.4 mph5.5 kmh 30.09 in1019.0 mb - 0.00 in0.0 mm 0.00 in0.0 mm
12:43 AM 52.5°F11.4°C 50.5°F10.3°C 93% Calm Calm 1.1 mph1.8 kmh 30.09 in1019.0 mb - 0.00 in0.0 mm 0.00 in0.0 mm
12:37 AM 52.5°F11.4°C 50.5°F10.3°C 93% 1.1 mph W1.8 kmh W 2.3 mph3.7 kmh 30.09 in1019.0 mb - 0.00 in0.0 mm 0.00 in0.0 mm
12:31 AM 52.5°F11.4°C 50.5°F10.3°C 93% 2.3 mph W3.7 kmh W 3.4 mph5.5 kmh 30.09 in1019.0 mb - 0.00 in0.0 mm 0.00 in0.0 mm
12:26 AM 52.5°F11.4°C 50.5°F10.3°C 93% 1.1 mph W1.8 kmh W 2.3 mph3.7 kmh 30.09 in1019.0 mb - 0.00 in0.0 mm 0.00 in0.0 mm
12:20 AM 52.5°F11.4°C 50.6°F10.3°C 93% 1.1 mph WSW1.8 kmh WSW 2.3 mph3.7 kmh 30.09 in1019.0 mb - 0.00 in0.0 mm 0.00 in0.0 mm
12:15 AM 52.6°F11.4°C 50.6°F10.3°C 93% 1.1 mph SW1.8 kmh SW 2.3 mph3.7 kmh 30.09 in1019.0 mb - 0.00 in0.0 mm 0.00 in0.0 mm
12:09 AM 52.7°F11.5°C 50.7°F10.4°C 93% 1.1 mph WSW1.8 kmh WSW 3.4 mph5.5 kmh 30.09 in1019.0 mb - 0.00 in0.0 mm 0.00 in0.0 mm
12:03 AM 52.7°F11.5°C 50.7°F10.4°C 93% Calm Calm -- 30.09 in1019.0 mb - 0.00 in0.0 mm 0.00 in0.0 mm